sensor_id;sensor_type;location;lat;lon;timestamp;P1;durP1;ratioP1;P2;durP2;ratioP2
52434;SDS011;38354;52.892;6.148;2022-11-25T04:01:41;27.63;;;5.63;;
52434;SDS011;38354;52.892;6.148;2022-11-25T04:04:08;25.13;;;5.68;;
52434;SDS011;38354;52.892;6.148;2022-11-25T04:06:34;27.75;;;6.35;;
52434;SDS011;38354;52.892;6.148;2022-11-25T04:09:00;33.40;;;6.30;;
52434;SDS011;38354;52.892;6.148;2022-11-25T04:11:26;26.15;;;6.75;;
52434;SDS011;38354;52.892;6.148;2022-11-25T04:14:11;21.55;;;6.63;;
52434;SDS011;38354;52.892;6.148;2022-11-25T04:16:38;31.63;;;6.75;;
52434;SDS011;38354;52.892;6.148;2022-11-25T04:19:03;33.13;;;6.60;;
52434;SDS011;38354;52.892;6.148;2022-11-25T04:21:29;35.20;;;7.13;;
52434;SDS011;38354;52.892;6.148;2022-11-25T04:23:55;26.65;;;6.10;;
52434;SDS011;38354;52.892;6.148;2022-11-25T04:26:20;28.30;;;5.85;;
52434;SDS011;38354;52.892;6.148;2022-11-25T04:28:46;44.30;;;8.57;;
52434;SDS011;38354;52.892;6.148;2022-11-25T04:31:11;34.67;;;8.15;;
52434;SDS011;38354;52.892;6.148;2022-11-25T04:33:37;25.52;;;6.32;;
52434;SDS011;38354;52.892;6.148;2022-11-25T04:36:03;29.65;;;6.80;;
52434;SDS011;38354;52.892;6.148;2022-11-25T04:38:29;28.13;;;6.05;;
52434;SDS011;38354;52.892;6.148;2022-11-25T04:40:54;27.02;;;6.78;;
52434;SDS011;38354;52.892;6.148;2022-11-25T04:43:20;30.70;;;6.38;;
52434;SDS011;38354;52.892;6.148;2022-11-25T04:45:46;38.03;;;7.63;;
52434;SDS011;38354;52.892;6.148;2022-11-25T04:48:12;25.55;;;6.55;;
52434;SDS011;38354;52.892;6.148;2022-11-25T04:50:38;33.40;;;6.57;;
52434;SDS011;38354;52.892;6.148;2022-11-25T04:53:03;35.05;;;7.40;;
52434;SDS011;38354;52.892;6.148;2022-11-25T04:55:29;38.40;;;7.25;;
52434;SDS011;38354;52.892;6.148;2022-11-25T04:57:55;23.48;;;5.80;;
52434;SDS011;38354;52.892;6.148;2022-11-25T05:00:21;23.83;;;5.90;;
52434;SDS011;38354;52.892;6.148;2022-11-25T05:02:47;25.88;;;6.00;;
52434;SDS011;38354;52.892;6.148;2022-11-25T05:05:13;29.27;;;6.20;;
52434;SDS011;38354;52.892;6.148;2022-11-25T05:07:39;28.73;;;6.55;;
52434;SDS011;38354;52.892;6.148;2022-11-25T05:10:05;25.98;;;6.90;;
52434;SDS011;38354;52.892;6.148;2022-11-25T05:12:31;31.90;;;6.35;;
52434;SDS011;38354;52.892;6.148;2022-11-25T05:14:57;30.58;;;6.60;;
52434;SDS011;38354;52.892;6.148;2022-11-25T05:17:27;25.90;;;6.50;;
52434;SDS011;38354;52.892;6.148;2022-11-25T05:19:54;33.58;;;6.25;;
52434;SDS011;38354;52.892;6.148;2022-11-25T05:22:21;24.48;;;6.97;;
52434;SDS011;38354;52.892;6.148;2022-11-25T05:24:51;27.95;;;6.50;;
52434;SDS011;38354;52.892;6.148;2022-11-25T05:27:17;30.13;;;6.78;;
52434;SDS011;38354;52.892;6.148;2022-11-25T05:29:44;27.88;;;7.95;;
52434;SDS011;38354;52.892;6.148;2022-11-25T05:32:10;38.40;;;7.40;;
52434;SDS011;38354;52.892;6.148;2022-11-25T05:34:35;31.02;;;7.10;;
52434;SDS011;38354;52.892;6.148;2022-11-25T05:37:02;38.38;;;7.45;;
52434;SDS011;38354;52.892;6.148;2022-11-25T05:39:28;24.38;;;7.05;;
52434;SDS011;38354;52.892;6.148;2022-11-25T05:41:54;25.98;;;7.65;;
52434;SDS011;38354;52.892;6.148;2022-11-25T05:44:19;31.98;;;8.10;;
52434;SDS011;38354;52.892;6.148;2022-11-25T05:46:45;30.95;;;7.32;;
52434;SDS011;38354;52.892;6.148;2022-11-25T05:49:12;22.40;;;6.35;;
52434;SDS011;38354;52.892;6.148;2022-11-25T05:51:39;24.83;;;7.20;;
52434;SDS011;38354;52.892;6.148;2022-11-25T05:54:05;26.60;;;8.20;;
52434;SDS011;38354;52.892;6.148;2022-11-25T05:56:31;36.60;;;8.13;;
52434;SDS011;38354;52.892;6.148;2022-11-25T05:59:00;28.02;;;7.28;;
52434;SDS011;38354;52.892;6.148;2022-11-25T06:01:26;29.55;;;7.43;;
52434;SDS011;38354;52.892;6.148;2022-11-25T06:03:52;23.45;;;6.43;;
52434;SDS011;38354;52.892;6.148;2022-11-25T06:06:18;22.92;;;6.35;;
52434;SDS011;38354;52.892;6.148;2022-11-25T06:08:44;22.35;;;7.43;;
52434;SDS011;38354;52.892;6.148;2022-11-25T06:11:11;27.13;;;6.88;;
52434;SDS011;38354;52.892;6.148;2022-11-25T06:13:41;28.95;;;7.18;;
52434;SDS011;38354;52.892;6.148;2022-11-25T06:16:11;24.55;;;7.22;;
52434;SDS011;38354;52.892;6.148;2022-11-25T06:18:47;21.00;;;6.95;;
52434;SDS011;38354;52.892;6.148;2022-11-25T06:21:13;21.73;;;7.15;;
52434;SDS011;38354;52.892;6.148;2022-11-25T06:23:39;20.35;;;6.15;;
52434;SDS011;38354;52.892;6.148;2022-11-25T06:26:09;27.40;;;7.35;;
52434;SDS011;38354;52.892;6.148;2022-11-25T06:28:39;35.35;;;8.40;;
52434;SDS011;38354;52.892;6.148;2022-11-25T06:33:32;16.75;;;6.50;;
52434;SDS011;38354;52.892;6.148;2022-11-25T06:35:58;24.45;;;6.78;;
52434;SDS011;38354;52.892;6.148;2022-11-25T06:38:25;24.45;;;6.97;;
52434;SDS011;38354;52.892;6.148;2022-11-25T06:40:52;19.23;;;6.35;;
52434;SDS011;38354;52.892;6.148;2022-11-25T06:43:17;25.27;;;7.18;;
52434;SDS011;38354;52.892;6.148;2022-11-25T06:45:43;22.70;;;6.32;;
52434;SDS011;38354;52.892;6.148;2022-11-25T06:48:08;26.95;;;6.63;;
52434;SDS011;38354;52.892;6.148;2022-11-25T06:50:34;21.52;;;5.93;;
52434;SDS011;38354;52.892;6.148;2022-11-25T06:53:00;25.75;;;6.32;;
52434;SDS011;38354;52.892;6.148;2022-11-25T06:55:26;19.65;;;5.63;;
52434;SDS011;38354;52.892;6.148;2022-11-25T06:57:52;17.33;;;6.05;;
52434;SDS011;38354;52.892;6.148;2022-11-25T07:00:17;21.20;;;6.28;;
52434;SDS011;38354;52.892;6.148;2022-11-25T07:02:43;17.52;;;5.70;;
52434;SDS011;38354;52.892;6.148;2022-11-25T07:05:09;22.52;;;5.78;;
52434;SDS011;38354;52.892;6.148;2022-11-25T07:07:35;22.27;;;6.03;;
52434;SDS011;38354;52.892;6.148;2022-11-25T07:10:01;18.25;;;5.43;;
52434;SDS011;38354;52.892;6.148;2022-11-25T07:12:29;22.02;;;7.72;;
52434;SDS011;38354;52.892;6.148;2022-11-25T07:14:54;20.70;;;6.07;;
52434;SDS011;38354;52.892;6.148;2022-11-25T07:17:20;21.00;;;6.35;;
52434;SDS011;38354;52.892;6.148;2022-11-25T07:19:46;19.42;;;6.38;;
52434;SDS011;38354;52.892;6.148;2022-11-25T07:22:11;22.95;;;6.15;;
52434;SDS011;38354;52.892;6.148;2022-11-25T07:24:37;20.40;;;5.88;;
52434;SDS011;38354;52.892;6.148;2022-11-25T07:27:03;23.52;;;5.80;;
52434;SDS011;38354;52.892;6.148;2022-11-25T07:29:30;20.60;;;5.32;;
52434;SDS011;38354;52.892;6.148;2022-11-25T07:31:56;22.17;;;6.15;;
52434;SDS011;38354;52.892;6.148;2022-11-25T07:34:22;18.20;;;5.35;;
52434;SDS011;38354;52.892;6.148;2022-11-25T07:36:48;16.95;;;5.40;;
52434;SDS011;38354;52.892;6.148;2022-11-25T07:39:16;17.42;;;5.20;;
52434;SDS011;38354;52.892;6.148;2022-11-25T07:41:43;25.20;;;8.15;;
52434;SDS011;38354;52.892;6.148;2022-11-25T07:44:10;21.02;;;6.20;;
52434;SDS011;38354;52.892;6.148;2022-11-25T07:46:39;18.27;;;5.30;;
52434;SDS011;38354;52.892;6.148;2022-11-25T07:49:06;22.30;;;5.18;;
52434;SDS011;38354;52.892;6.148;2022-11-25T07:51:36;16.40;;;5.60;;
52434;SDS011;38354;52.892;6.148;2022-11-25T07:54:04;16.08;;;4.55;;
52434;SDS011;38354;52.892;6.148;2022-11-25T07:56:33;14.23;;;4.63;;
52434;SDS011;38354;52.892;6.148;2022-11-25T07:58:59;18.33;;;5.40;;
52434;SDS011;38354;52.892;6.148;2022-11-25T08:01:25;15.43;;;5.85;;
52434;SDS011;38354;52.892;6.148;2022-11-25T08:03:51;16.95;;;5.07;;
52434;SDS011;38354;52.892;6.148;2022-11-25T08:06:26;19.30;;;5.53;;
52434;SDS011;38354;52.892;6.148;2022-11-25T08:08:52;16.00;;;6.13;;
52434;SDS011;38354;52.892;6.148;2022-11-25T08:11:23;14.95;;;5.35;;
52434;SDS011;38354;52.892;6.148;2022-11-25T08:13:51;17.63;;;5.57;;
52434;SDS011;38354;52.892;6.148;2022-11-25T08:16:18;19.08;;;5.18;;
52434;SDS011;38354;52.892;6.148;2022-11-25T08:18:45;14.35;;;5.40;;
52434;SDS011;38354;52.892;6.148;2022-11-25T08:21:12;18.10;;;5.70;;
52434;SDS011;38354;52.892;6.148;2022-11-25T08:23:40;19.60;;;5.30;;
52434;SDS011;38354;52.892;6.148;2022-11-25T08:26:13;17.38;;;5.45;;
52434;SDS011;38354;52.892;6.148;2022-11-25T08:28:42;21.30;;;5.78;;
52434;SDS011;38354;52.892;6.148;2022-11-25T08:31:09;20.38;;;5.28;;
52434;SDS011;38354;52.892;6.148;2022-11-25T08:33:37;14.90;;;6.40;;
52434;SDS011;38354;52.892;6.148;2022-11-25T08:36:04;21.10;;;5.72;;
52434;SDS011;38354;52.892;6.148;2022-11-25T08:38:31;15.27;;;5.88;;
52434;SDS011;38354;52.892;6.148;2022-11-25T08:40:57;17.23;;;6.03;;
52434;SDS011;38354;52.892;6.148;2022-11-25T08:43:24;13.32;;;5.75;;
52434;SDS011;38354;52.892;6.148;2022-11-25T08:45:50;21.65;;;6.40;;
52434;SDS011;38354;52.892;6.148;2022-11-25T08:48:16;15.82;;;6.72;;
52434;SDS011;38354;52.892;6.148;2022-11-25T08:50:45;16.45;;;6.22;;
52434;SDS011;38354;52.892;6.148;2022-11-25T08:53:15;20.38;;;6.72;;
52434;SDS011;38354;52.892;6.148;2022-11-25T08:55:42;15.02;;;5.85;;
52434;SDS011;38354;52.892;6.148;2022-11-25T08:58:08;20.33;;;6.55;;
52434;SDS011;38354;52.892;6.148;2022-11-25T09:00:35;16.10;;;6.05;;
52434;SDS011;38354;52.892;6.148;2022-11-25T09:03:02;13.88;;;5.88;;
52434;SDS011;38354;52.892;6.148;2022-11-25T09:05:28;14.13;;;5.90;;
52434;SDS011;38354;52.892;6.148;2022-11-25T09:08:00;13.07;;;6.13;;
52434;SDS011;38354;52.892;6.148;2022-11-25T09:10:26;17.92;;;6.47;;
52434;SDS011;38354;52.892;6.148;2022-11-25T09:12:52;19.63;;;6.97;;
52434;SDS011;38354;52.892;6.148;2022-11-25T09:15:18;12.68;;;5.90;;
52434;SDS011;38354;52.892;6.148;2022-11-25T09:17:44;15.55;;;5.93;;
52434;SDS011;38354;52.892;6.148;2022-11-25T09:20:09;16.42;;;7.10;;
52434;SDS011;38354;52.892;6.148;2022-11-25T09:22:35;14.45;;;5.30;;
52434;SDS011;38354;52.892;6.148;2022-11-25T09:25:01;14.57;;;6.43;;
52434;SDS011;38354;52.892;6.148;2022-11-25T09:27:29;12.70;;;5.25;;
52434;SDS011;38354;52.892;6.148;2022-11-25T09:29:55;11.57;;;4.95;;
52434;SDS011;38354;52.892;6.148;2022-11-25T09:32:21;16.38;;;5.60;;
52434;SDS011;38354;52.892;6.148;2022-11-25T09:34:46;18.55;;;5.70;;
52434;SDS011;38354;52.892;6.148;2022-11-25T09:37:12;17.13;;;5.28;;
52434;SDS011;38354;52.892;6.148;2022-11-25T09:39:38;24.55;;;7.15;;
52434;SDS011;38354;52.892;6.148;2022-11-25T09:42:20;11.48;;;4.68;;
52434;SDS011;38354;52.892;6.148;2022-11-25T09:54:47;12.20;;;4.18;;
52434;SDS011;38354;52.892;6.148;2022-11-25T10:00:20;11.60;;;3.92;;
52434;SDS011;38354;52.892;6.148;2022-11-25T10:08:13;19.77;;;5.60;;
52434;SDS011;38354;52.892;6.148;2022-11-25T10:10:49;14.43;;;4.20;;
52434;SDS011;38354;52.892;6.148;2022-11-25T10:19:11;12.93;;;3.70;;
52434;SDS011;38354;52.892;6.148;2022-11-25T10:21:46;10.40;;;3.60;;
52434;SDS011;38354;52.892;6.148;2022-11-25T10:24:15;30.02;;;4.85;;
52434;SDS011;38354;52.892;6.148;2022-11-25T10:26:48;12.48;;;3.75;;
52434;SDS011;38354;52.892;6.148;2022-11-25T10:29:28;13.03;;;3.77;;
52434;SDS011;38354;52.892;6.148;2022-11-25T10:31:58;10.17;;;3.37;;
52434;SDS011;38354;52.892;6.148;2022-11-25T10:34:46;10.93;;;3.70;;
52434;SDS011;38354;52.892;6.148;2022-11-25T10:37:36;9.35;;;4.00;;
52434;SDS011;38354;52.892;6.148;2022-11-25T10:40:04;11.75;;;3.42;;
52434;SDS011;38354;52.892;6.148;2022-11-25T10:42:30;10.23;;;3.05;;
52434;SDS011;38354;52.892;6.148;2022-11-25T10:44:56;9.88;;;3.20;;
52434;SDS011;38354;52.892;6.148;2022-11-25T10:50:32;7.95;;;2.60;;
52434;SDS011;38354;52.892;6.148;2022-11-25T10:53:23;11.32;;;3.28;;
52434;SDS011;38354;52.892;6.148;2022-11-25T10:55:58;12.65;;;3.50;;
52434;SDS011;38354;52.892;6.148;2022-11-25T10:58:27;19.63;;;3.65;;
52434;SDS011;38354;52.892;6.148;2022-11-25T11:03:42;11.60;;;3.72;;
52434;SDS011;38354;52.892;6.148;2022-11-25T11:06:31;10.45;;;2.97;;
52434;SDS011;38354;52.892;6.148;2022-11-25T11:08:59;9.85;;;2.53;;
52434;SDS011;38354;52.892;6.148;2022-11-25T11:11:25;9.25;;;2.83;;
52434;SDS011;38354;52.892;6.148;2022-11-25T11:14:05;10.82;;;2.70;;
52434;SDS011;38354;52.892;6.148;2022-11-25T11:16:39;12.23;;;2.80;;
52434;SDS011;38354;52.892;6.148;2022-11-25T11:19:13;10.52;;;2.97;;
52434;SDS011;38354;52.892;6.148;2022-11-25T11:21:55;10.18;;;2.58;;
52434;SDS011;38354;52.892;6.148;2022-11-25T11:24:38;13.88;;;3.00;;
52434;SDS011;38354;52.892;6.148;2022-11-25T11:29:45;9.73;;;2.40;;
52434;SDS011;38354;52.892;6.148;2022-11-25T11:32:28;13.07;;;2.47;;
52434;SDS011;38354;52.892;6.148;2022-11-25T11:35:02;11.88;;;2.25;;
52434;SDS011;38354;52.892;6.148;2022-11-25T11:37:41;14.40;;;2.90;;
52434;SDS011;38354;52.892;6.148;2022-11-25T11:43:36;19.27;;;2.67;;
52434;SDS011;38354;52.892;6.148;2022-11-25T11:46:24;12.07;;;2.20;;
52434;SDS011;38354;52.892;6.148;2022-11-25T11:54:17;8.40;;;1.80;;
52434;SDS011;38354;52.892;6.148;2022-11-25T11:56:55;14.13;;;2.03;;
52434;SDS011;38354;52.892;6.148;2022-11-25T12:07:17;21.45;;;3.38;;
52434;SDS011;38354;52.892;6.148;2022-11-25T12:09:52;21.83;;;2.92;;
52434;SDS011;38354;52.892;6.148;2022-11-25T12:26:48;18.50;;;3.60;;
52434;SDS011;38354;52.892;6.148;2022-11-25T12:29:32;15.35;;;3.50;;
52434;SDS011;38354;52.892;6.148;2022-11-25T12:35:02;18.85;;;3.05;;
52434;SDS011;38354;52.892;6.148;2022-11-25T12:37:56;23.77;;;3.88;;
52434;SDS011;38354;52.892;6.148;2022-11-25T12:40:57;16.55;;;4.38;;
52434;SDS011;38354;52.892;6.148;2022-11-25T12:43:38;14.23;;;2.97;;
52434;SDS011;38354;52.892;6.148;2022-11-25T12:46:11;15.77;;;3.13;;
52434;SDS011;38354;52.892;6.148;2022-11-25T12:48:38;20.67;;;3.85;;
52434;SDS011;38354;52.892;6.148;2022-11-25T12:56:25;14.00;;;3.80;;
52434;SDS011;38354;52.892;6.148;2022-11-25T12:59:09;13.50;;;3.28;;
52434;SDS011;38354;52.892;6.148;2022-11-25T13:01:47;30.05;;;7.57;;
52434;SDS011;38354;52.892;6.148;2022-11-25T13:08:18;16.55;;;4.82;;
52434;SDS011;38354;52.892;6.148;2022-11-25T13:16:00;21.38;;;4.57;;
52434;SDS011;38354;52.892;6.148;2022-11-25T13:18:30;15.13;;;2.47;;
52434;SDS011;38354;52.892;6.148;2022-11-25T13:21:04;21.90;;;3.85;;
52434;SDS011;38354;52.892;6.148;2022-11-25T13:23:44;16.25;;;3.10;;
52434;SDS011;38354;52.892;6.148;2022-11-25T13:28:53;16.23;;;2.83;;
52434;SDS011;38354;52.892;6.148;2022-11-25T13:31:20;18.52;;;2.95;;
52434;SDS011;38354;52.892;6.148;2022-11-25T13:46:27;15.40;;;2.50;;
52434;SDS011;38354;52.892;6.148;2022-11-25T13:49:24;16.30;;;2.40;;
52434;SDS011;38354;52.892;6.148;2022-11-25T13:51:55;17.80;;;3.20;;
52434;SDS011;38354;52.892;6.148;2022-11-25T13:54:31;21.48;;;2.80;;
52434;SDS011;38354;52.892;6.148;2022-11-25T13:59:37;18.95;;;2.78;;
52434;SDS011;38354;52.892;6.148;2022-11-25T14:26:35;16.88;;;2.55;;
52434;SDS011;38354;52.892;6.148;2022-11-25T14:29:18;16.35;;;2.35;;
52434;SDS011;38354;52.892;6.148;2022-11-25T14:31:51;14.48;;;2.70;;
52434;SDS011;38354;52.892;6.148;2022-11-25T14:34:22;16.08;;;2.75;;
52434;SDS011;38354;52.892;6.148;2022-11-25T14:37:07;20.83;;;3.25;;
52434;SDS011;38354;52.892;6.148;2022-11-25T14:42:33;22.70;;;3.78;;
52434;SDS011;38354;52.892;6.148;2022-11-25T14:45:01;22.45;;;3.80;;
52434;SDS011;38354;52.892;6.148;2022-11-25T14:47:29;25.40;;;3.83;;
52434;SDS011;38354;52.892;6.148;2022-11-25T14:50:00;19.35;;;3.63;;
52434;SDS011;38354;52.892;6.148;2022-11-25T14:52:27;22.48;;;3.90;;
52434;SDS011;38354;52.892;6.148;2022-11-25T14:54:56;20.38;;;5.15;;
52434;SDS011;38354;52.892;6.148;2022-11-25T14:57:25;20.77;;;3.17;;
52434;SDS011;38354;52.892;6.148;2022-11-25T14:59:54;22.23;;;4.25;;
52434;SDS011;38354;52.892;6.148;2022-11-25T15:04:49;25.52;;;3.47;;
52434;SDS011;38354;52.892;6.148;2022-11-25T15:07:17;17.52;;;3.47;;
52434;SDS011;38354;52.892;6.148;2022-11-25T15:09:46;27.00;;;5.35;;
52434;SDS011;38354;52.892;6.148;2022-11-25T15:12:13;17.70;;;3.72;;
52434;SDS011;38354;52.892;6.148;2022-11-25T15:14:42;19.42;;;3.33;;
52434;SDS011;38354;52.892;6.148;2022-11-25T15:17:28;16.15;;;3.78;;
52434;SDS011;38354;52.892;6.148;2022-11-25T15:19:56;18.45;;;3.97;;
52434;SDS011;38354;52.892;6.148;2022-11-25T15:22:27;20.33;;;4.47;;
52434;SDS011;38354;52.892;6.148;2022-11-25T15:24:53;20.35;;;3.63;;
52434;SDS011;38354;52.892;6.148;2022-11-25T15:27:31;21.75;;;3.97;;
52434;SDS011;38354;52.892;6.148;2022-11-25T15:29:57;22.35;;;3.30;;
52434;SDS011;38354;52.892;6.148;2022-11-25T15:32:27;23.90;;;4.75;;
52434;SDS011;38354;52.892;6.148;2022-11-25T15:34:55;19.60;;;3.28;;
52434;SDS011;38354;52.892;6.148;2022-11-25T15:37:23;24.63;;;5.00;;
52434;SDS011;38354;52.892;6.148;2022-11-25T15:39:49;23.08;;;3.42;;
52434;SDS011;38354;52.892;6.148;2022-11-25T15:42:35;15.10;;;3.05;;
52434;SDS011;38354;52.892;6.148;2022-11-25T15:45:07;20.92;;;4.15;;
52434;SDS011;38354;52.892;6.148;2022-11-25T15:47:43;18.40;;;3.90;;
52434;SDS011;38354;52.892;6.148;2022-11-25T15:52:48;18.73;;;4.00;;
52434;SDS011;38354;52.892;6.148;2022-11-25T15:55:30;24.55;;;4.15;;
52434;SDS011;38354;52.892;6.148;2022-11-25T15:58:19;18.98;;;3.72;;
52434;SDS011;38354;52.892;6.148;2022-11-25T16:01:04;20.27;;;2.83;;
52434;SDS011;38354;52.892;6.148;2022-11-25T16:03:32;24.55;;;4.47;;
52434;SDS011;38354;52.892;6.148;2022-11-25T16:05:59;21.23;;;3.47;;
52434;SDS011;38354;52.892;6.148;2022-11-25T16:08:35;28.70;;;4.85;;
52434;SDS011;38354;52.892;6.148;2022-11-25T16:13:42;17.00;;;3.90;;
52434;SDS011;38354;52.892;6.148;2022-11-25T16:26:57;21.38;;;3.70;;
52434;SDS011;38354;52.892;6.148;2022-11-25T16:31:59;21.38;;;3.90;;
52434;SDS011;38354;52.892;6.148;2022-11-25T16:34:25;22.85;;;4.40;;
52434;SDS011;38354;52.892;6.148;2022-11-25T16:36:52;20.08;;;3.40;;
52434;SDS011;38354;52.892;6.148;2022-11-25T16:39:18;22.15;;;3.22;;
52434;SDS011;38354;52.892;6.148;2022-11-25T16:41:46;25.80;;;4.30;;
52434;SDS011;38354;52.892;6.148;2022-11-25T16:44:19;18.85;;;3.40;;
52434;SDS011;38354;52.892;6.148;2022-11-25T16:46:47;23.45;;;4.40;;
52434;SDS011;38354;52.892;6.148;2022-11-25T16:49:14;23.67;;;4.00;;
52434;SDS011;38354;52.892;6.148;2022-11-25T16:51:41;20.77;;;3.30;;
52434;SDS011;38354;52.892;6.148;2022-11-25T16:54:07;27.42;;;4.57;;
52434;SDS011;38354;52.892;6.148;2022-11-25T16:56:33;18.15;;;4.65;;
52434;SDS011;38354;52.892;6.148;2022-11-25T16:59:04;24.90;;;4.07;;
52434;SDS011;38354;52.892;6.148;2022-11-25T17:01:31;27.65;;;4.03;;
52434;SDS011;38354;52.892;6.148;2022-11-25T17:03:58;18.48;;;3.42;;
52434;SDS011;38354;52.892;6.148;2022-11-25T17:06:25;28.52;;;4.95;;
52434;SDS011;38354;52.892;6.148;2022-11-25T17:08:52;19.67;;;3.45;;
52434;SDS011;38354;52.892;6.148;2022-11-25T17:11:28;23.00;;;3.45;;
52434;SDS011;38354;52.892;6.148;2022-11-25T17:13:58;22.45;;;5.28;;
52434;SDS011;38354;52.892;6.148;2022-11-25T17:16:27;17.85;;;3.20;;
52434;SDS011;38354;52.892;6.148;2022-11-25T17:18:54;18.85;;;3.88;;
52434;SDS011;38354;52.892;6.148;2022-11-25T17:21:22;25.88;;;5.07;;
52434;SDS011;38354;52.892;6.148;2022-11-25T17:23:51;21.48;;;4.13;;
52434;SDS011;38354;52.892;6.148;2022-11-25T17:26:18;17.77;;;5.65;;
52434;SDS011;38354;52.892;6.148;2022-11-25T17:28:55;21.52;;;4.22;;
52434;SDS011;38354;52.892;6.148;2022-11-25T17:31:25;25.50;;;5.43;;
52434;SDS011;38354;52.892;6.148;2022-11-25T17:33:52;18.25;;;4.43;;
52434;SDS011;38354;52.892;6.148;2022-11-25T17:36:18;20.88;;;3.63;;
52434;SDS011;38354;52.892;6.148;2022-11-25T17:38:45;21.33;;;4.78;;
52434;SDS011;38354;52.892;6.148;2022-11-25T17:41:11;20.48;;;4.57;;
52434;SDS011;38354;52.892;6.148;2022-11-25T17:43:43;21.38;;;4.85;;
52434;SDS011;38354;52.892;6.148;2022-11-25T17:46:20;27.10;;;4.75;;
52434;SDS011;38354;52.892;6.148;2022-11-25T17:48:46;27.23;;;4.30;;
52434;SDS011;38354;52.892;6.148;2022-11-25T17:51:12;19.95;;;4.70;;
52434;SDS011;38354;52.892;6.148;2022-11-25T17:53:38;21.10;;;4.40;;
52434;SDS011;38354;52.892;6.148;2022-11-25T17:56:24;19.88;;;4.55;;
52434;SDS011;38354;52.892;6.148;2022-11-25T17:58:52;21.30;;;4.70;;
52434;SDS011;38354;52.892;6.148;2022-11-25T18:01:18;29.08;;;4.88;;
52434;SDS011;38354;52.892;6.148;2022-11-25T18:03:44;19.75;;;4.85;;
52434;SDS011;38354;52.892;6.148;2022-11-25T18:06:13;27.75;;;4.82;;
52434;SDS011;38354;52.892;6.148;2022-11-25T18:08:39;23.75;;;4.75;;
52434;SDS011;38354;52.892;6.148;2022-11-25T18:11:04;22.17;;;4.35;;
52434;SDS011;38354;52.892;6.148;2022-11-25T18:13:34;23.05;;;4.50;;
52434;SDS011;38354;52.892;6.148;2022-11-25T18:16:02;19.80;;;3.83;;
52434;SDS011;38354;52.892;6.148;2022-11-25T18:18:28;25.65;;;4.93;;
52434;SDS011;38354;52.892;6.148;2022-11-25T18:20:54;21.90;;;4.32;;
52434;SDS011;38354;52.892;6.148;2022-11-25T18:23:20;30.75;;;5.45;;
52434;SDS011;38354;52.892;6.148;2022-11-25T18:25:46;18.27;;;4.18;;
52434;SDS011;38354;52.892;6.148;2022-11-25T18:28:16;23.23;;;4.30;;
52434;SDS011;38354;52.892;6.148;2022-11-25T18:30:47;23.83;;;4.57;;
52434;SDS011;38354;52.892;6.148;2022-11-25T18:33:15;22.35;;;5.38;;
52434;SDS011;38354;52.892;6.148;2022-11-25T18:35:42;34.65;;;5.20;;
52434;SDS011;38354;52.892;6.148;2022-11-25T18:38:09;31.50;;;4.80;;
52434;SDS011;38354;52.892;6.148;2022-11-25T18:40:37;26.52;;;4.57;;
52434;SDS011;38354;52.892;6.148;2022-11-25T18:43:04;19.02;;;5.13;;
52434;SDS011;38354;52.892;6.148;2022-11-25T18:45:35;20.17;;;4.47;;
52434;SDS011;38354;52.892;6.148;2022-11-25T18:48:12;23.00;;;4.72;;
52434;SDS011;38354;52.892;6.148;2022-11-25T18:50:43;27.10;;;6.15;;
52434;SDS011;38354;52.892;6.148;2022-11-25T18:53:10;34.15;;;5.35;;
52434;SDS011;38354;52.892;6.148;2022-11-25T18:55:36;23.48;;;4.40;;
52434;SDS011;38354;52.892;6.148;2022-11-25T18:58:02;29.75;;;4.80;;
52434;SDS011;38354;52.892;6.148;2022-11-25T19:00:33;23.83;;;5.10;;
52434;SDS011;38354;52.892;6.148;2022-11-25T19:02:59;19.05;;;5.05;;
52434;SDS011;38354;52.892;6.148;2022-11-25T19:05:25;28.77;;;5.65;;
52434;SDS011;38354;52.892;6.148;2022-11-25T19:07:54;63.13;;;20.00;;
52434;SDS011;38354;52.892;6.148;2022-11-25T19:10:21;48.63;;;16.63;;
52434;SDS011;38354;52.892;6.148;2022-11-25T19:12:50;71.43;;;21.08;;
52434;SDS011;38354;52.892;6.148;2022-11-25T19:20:21;31.08;;;8.30;;
52434;SDS011;38354;52.892;6.148;2022-11-25T19:22:47;33.17;;;8.07;;
52434;SDS011;38354;52.892;6.148;2022-11-25T19:25:13;29.92;;;7.45;;
52434;SDS011;38354;52.892;6.148;2022-11-25T19:27:47;31.17;;;8.90;;
52434;SDS011;38354;52.892;6.148;2022-11-25T19:30:19;26.33;;;7.50;;
52434;SDS011;38354;52.892;6.148;2022-11-25T19:32:47;30.98;;;8.05;;
52434;SDS011;38354;52.892;6.148;2022-11-25T19:35:15;30.73;;;7.35;;
52434;SDS011;38354;52.892;6.148;2022-11-25T19:37:43;29.88;;;7.93;;
52434;SDS011;38354;52.892;6.148;2022-11-25T19:40:16;23.17;;;7.53;;
52434;SDS011;38354;52.892;6.148;2022-11-25T19:42:45;26.60;;;7.15;;
52434;SDS011;38354;52.892;6.148;2022-11-25T19:45:12;28.50;;;7.82;;
52434;SDS011;38354;52.892;6.148;2022-11-25T19:47:46;29.75;;;7.00;;
52434;SDS011;38354;52.892;6.148;2022-11-25T19:50:26;23.15;;;6.45;;
52434;SDS011;38354;52.892;6.148;2022-11-25T19:52:52;20.33;;;5.53;;
52434;SDS011;38354;52.892;6.148;2022-11-25T19:55:20;30.75;;;5.63;;
52434;SDS011;38354;52.892;6.148;2022-11-25T19:57:47;26.98;;;5.00;;
52434;SDS011;38354;52.892;6.148;2022-11-25T20:00:14;27.58;;;6.22;;
52434;SDS011;38354;52.892;6.148;2022-11-25T20:02:42;28.13;;;5.38;;
52434;SDS011;38354;52.892;6.148;2022-11-25T20:05:09;26.02;;;6.03;;
52434;SDS011;38354;52.892;6.148;2022-11-25T20:07:39;26.85;;;6.15;;
52434;SDS011;38354;52.892;6.148;2022-11-25T20:10:22;26.42;;;5.15;;
52434;SDS011;38354;52.892;6.148;2022-11-25T20:12:51;22.27;;;4.28;;
52434;SDS011;38354;52.892;6.148;2022-11-25T20:15:18;27.10;;;6.10;;
52434;SDS011;38354;52.892;6.148;2022-11-25T20:17:45;25.75;;;5.95;;
52434;SDS011;38354;52.892;6.148;2022-11-25T20:20:30;25.90;;;6.75;;
52434;SDS011;38354;52.892;6.148;2022-11-25T20:25:32;26.63;;;5.72;;
52434;SDS011;38354;52.892;6.148;2022-11-25T20:28:04;28.50;;;6.68;;
52434;SDS011;38354;52.892;6.148;2022-11-25T20:30:54;25.85;;;5.65;;
52434;SDS011;38354;52.892;6.148;2022-11-25T20:33:23;24.70;;;5.18;;
52434;SDS011;38354;52.892;6.148;2022-11-25T20:35:50;23.80;;;5.38;;
52434;SDS011;38354;52.892;6.148;2022-11-25T20:38:18;23.08;;;5.60;;
52434;SDS011;38354;52.892;6.148;2022-11-25T20:40:50;26.40;;;5.00;;
52434;SDS011;38354;52.892;6.148;2022-11-25T20:43:27;25.95;;;5.53;;
52434;SDS011;38354;52.892;6.148;2022-11-25T20:45:54;27.92;;;7.90;;
52434;SDS011;38354;52.892;6.148;2022-11-25T20:48:20;21.85;;;5.20;;
52434;SDS011;38354;52.892;6.148;2022-11-25T20:50:46;29.77;;;6.43;;
52434;SDS011;38354;52.892;6.148;2022-11-25T20:53:13;27.17;;;5.88;;
52434;SDS011;38354;52.892;6.148;2022-11-25T20:55:40;30.38;;;6.50;;
52434;SDS011;38354;52.892;6.148;2022-11-25T20:58:18;32.03;;;6.30;;
52434;SDS011;38354;52.892;6.148;2022-11-25T21:00:47;26.10;;;6.40;;
52434;SDS011;38354;52.892;6.148;2022-11-25T21:03:14;25.80;;;7.32;;
52434;SDS011;38354;52.892;6.148;2022-11-25T21:05:40;26.77;;;4.97;;
52434;SDS011;38354;52.892;6.148;2022-11-25T21:08:15;30.70;;;5.70;;
52434;SDS011;38354;52.892;6.148;2022-11-25T21:10:44;27.17;;;6.47;;
52434;SDS011;38354;52.892;6.148;2022-11-25T21:13:15;25.90;;;5.45;;
52434;SDS011;38354;52.892;6.148;2022-11-25T21:15:45;24.73;;;5.97;;
52434;SDS011;38354;52.892;6.148;2022-11-25T21:18:13;22.77;;;6.57;;
52434;SDS011;38354;52.892;6.148;2022-11-25T21:20:39;33.83;;;6.00;;
52434;SDS011;38354;52.892;6.148;2022-11-25T21:23:05;24.95;;;6.25;;
52434;SDS011;38354;52.892;6.148;2022-11-25T21:25:37;22.98;;;6.55;;
52434;SDS011;38354;52.892;6.148;2022-11-25T21:28:02;28.25;;;6.38;;